sensor_id;sensor_type;location;lat;lon;timestamp;P1;durP1;ratioP1;P2;durP2;ratioP2
6414;SDS011;3240;48.790;9.210;2023-02-05T00:00:06;19.40;;;7.70;;
6414;SDS011;3240;48.790;9.210;2023-02-05T00:02:34;13.23;;;6.90;;
6414;SDS011;3240;48.790;9.210;2023-02-05T00:05:02;25.50;;;7.33;;
6414;SDS011;3240;48.790;9.210;2023-02-05T00:07:30;21.13;;;7.27;;
6414;SDS011;3240;48.790;9.210;2023-02-05T00:09:59;18.03;;;7.50;;
6414;SDS011;3240;48.790;9.210;2023-02-05T00:12:27;19.33;;;7.77;;
6414;SDS011;3240;48.790;9.210;2023-02-05T00:14:55;19.17;;;8.40;;
6414;SDS011;3240;48.790;9.210;2023-02-05T00:17:24;19.80;;;8.10;;
6414;SDS011;3240;48.790;9.210;2023-02-05T00:19:52;21.10;;;8.43;;
6414;SDS011;3240;48.790;9.210;2023-02-05T00:22:20;16.10;;;8.37;;
6414;SDS011;3240;48.790;9.210;2023-02-05T00:24:49;16.70;;;8.20;;
6414;SDS011;3240;48.790;9.210;2023-02-05T00:27:17;20.17;;;8.83;;
6414;SDS011;3240;48.790;9.210;2023-02-05T00:29:45;21.67;;;8.40;;
6414;SDS011;3240;48.790;9.210;2023-02-05T00:32:14;23.73;;;8.00;;
6414;SDS011;3240;48.790;9.210;2023-02-05T00:34:42;20.00;;;9.20;;
6414;SDS011;3240;48.790;9.210;2023-02-05T00:37:10;17.17;;;8.67;;
6414;SDS011;3240;48.790;9.210;2023-02-05T00:39:39;17.67;;;8.00;;
6414;SDS011;3240;48.790;9.210;2023-02-05T00:42:07;25.93;;;7.87;;
6414;SDS011;3240;48.790;9.210;2023-02-05T00:44:35;12.47;;;7.57;;
6414;SDS011;3240;48.790;9.210;2023-02-05T00:47:04;17.07;;;7.60;;
6414;SDS011;3240;48.790;9.210;2023-02-05T00:49:32;18.43;;;8.53;;
6414;SDS011;3240;48.790;9.210;2023-02-05T00:52:00;14.70;;;6.97;;
6414;SDS011;3240;48.790;9.210;2023-02-05T00:54:29;15.40;;;7.27;;
6414;SDS011;3240;48.790;9.210;2023-02-05T00:56:57;15.17;;;7.77;;
6414;SDS011;3240;48.790;9.210;2023-02-05T00:59:25;12.27;;;6.73;;
6414;SDS011;3240;48.790;9.210;2023-02-05T01:01:54;17.10;;;8.83;;
6414;SDS011;3240;48.790;9.210;2023-02-05T01:04:22;16.73;;;7.27;;
6414;SDS011;3240;48.790;9.210;2023-02-05T01:06:50;18.97;;;7.53;;
6414;SDS011;3240;48.790;9.210;2023-02-05T01:09:19;12.97;;;7.00;;
6414;SDS011;3240;48.790;9.210;2023-02-05T01:11:47;16.80;;;8.03;;
6414;SDS011;3240;48.790;9.210;2023-02-05T01:14:15;17.67;;;7.67;;
6414;SDS011;3240;48.790;9.210;2023-02-05T01:16:44;15.80;;;7.90;;
6414;SDS011;3240;48.790;9.210;2023-02-05T01:19:12;17.50;;;6.80;;
6414;SDS011;3240;48.790;9.210;2023-02-05T01:21:40;11.73;;;7.03;;
6414;SDS011;3240;48.790;9.210;2023-02-05T01:24:09;14.40;;;7.60;;
6414;SDS011;3240;48.790;9.210;2023-02-05T01:26:37;13.97;;;6.80;;
6414;SDS011;3240;48.790;9.210;2023-02-05T01:29:05;16.03;;;8.27;;
6414;SDS011;3240;48.790;9.210;2023-02-05T01:31:34;12.23;;;6.90;;
6414;SDS011;3240;48.790;9.210;2023-02-05T01:34:02;14.97;;;7.87;;
6414;SDS011;3240;48.790;9.210;2023-02-05T01:36:30;14.73;;;6.63;;
6414;SDS011;3240;48.790;9.210;2023-02-05T01:38:59;17.33;;;7.90;;
6414;SDS011;3240;48.790;9.210;2023-02-05T01:41:27;16.97;;;7.77;;
6414;SDS011;3240;48.790;9.210;2023-02-05T01:46:30;19.23;;;8.07;;
6414;SDS011;3240;48.790;9.210;2023-02-05T01:48:58;17.53;;;7.93;;
6414;SDS011;3240;48.790;9.210;2023-02-05T01:51:27;16.73;;;8.07;;
6414;SDS011;3240;48.790;9.210;2023-02-05T01:53:54;12.70;;;7.87;;
6414;SDS011;3240;48.790;9.210;2023-02-05T01:56:27;11.63;;;7.00;;
6414;SDS011;3240;48.790;9.210;2023-02-05T01:58:58;29.80;;;8.90;;
6414;SDS011;3240;48.790;9.210;2023-02-05T02:01:24;17.60;;;8.07;;
6414;SDS011;3240;48.790;9.210;2023-02-05T02:03:53;17.60;;;8.20;;
6414;SDS011;3240;48.790;9.210;2023-02-05T02:06:21;15.67;;;7.73;;
6414;SDS011;3240;48.790;9.210;2023-02-05T02:08:49;18.37;;;8.00;;
6414;SDS011;3240;48.790;9.210;2023-02-05T02:11:18;21.90;;;9.07;;
6414;SDS011;3240;48.790;9.210;2023-02-05T02:13:46;15.13;;;7.87;;
6414;SDS011;3240;48.790;9.210;2023-02-05T02:16:14;19.07;;;8.07;;
6414;SDS011;3240;48.790;9.210;2023-02-05T02:18:42;17.87;;;7.60;;
6414;SDS011;3240;48.790;9.210;2023-02-05T02:23:50;21.60;;;8.67;;
6414;SDS011;3240;48.790;9.210;2023-02-05T02:26:18;14.07;;;8.00;;
6414;SDS011;3240;48.790;9.210;2023-02-05T02:28:44;17.53;;;8.10;;
6414;SDS011;3240;48.790;9.210;2023-02-05T02:31:17;21.20;;;8.17;;
6414;SDS011;3240;48.790;9.210;2023-02-05T02:33:47;15.03;;;8.50;;
6414;SDS011;3240;48.790;9.210;2023-02-05T02:36:24;15.60;;;8.00;;
6414;SDS011;3240;48.790;9.210;2023-02-05T02:38:54;18.13;;;7.73;;
6414;SDS011;3240;48.790;9.210;2023-02-05T02:41:29;15.93;;;8.47;;
6414;SDS011;3240;48.790;9.210;2023-02-05T02:43:56;17.23;;;8.80;;
6414;SDS011;3240;48.790;9.210;2023-02-05T02:46:27;16.60;;;8.20;;
6414;SDS011;3240;48.790;9.210;2023-02-05T02:48:55;20.53;;;8.50;;
6414;SDS011;3240;48.790;9.210;2023-02-05T02:51:23;17.83;;;8.00;;
6414;SDS011;3240;48.790;9.210;2023-02-05T02:53:53;18.27;;;7.87;;
6414;SDS011;3240;48.790;9.210;2023-02-05T02:56:20;15.07;;;7.90;;
6414;SDS011;3240;48.790;9.210;2023-02-05T02:58:49;22.10;;;9.60;;
6414;SDS011;3240;48.790;9.210;2023-02-05T03:01:17;18.50;;;9.20;;
6414;SDS011;3240;48.790;9.210;2023-02-05T03:03:48;17.70;;;7.77;;
6414;SDS011;3240;48.790;9.210;2023-02-05T03:06:13;20.60;;;8.23;;
6414;SDS011;3240;48.790;9.210;2023-02-05T03:08:44;18.27;;;8.53;;
6414;SDS011;3240;48.790;9.210;2023-02-05T03:11:11;18.30;;;9.40;;
6414;SDS011;3240;48.790;9.210;2023-02-05T03:13:39;18.30;;;8.10;;
6414;SDS011;3240;48.790;9.210;2023-02-05T03:16:07;17.43;;;8.40;;
6414;SDS011;3240;48.790;9.210;2023-02-05T03:18:35;17.83;;;7.75;;
6414;SDS011;3240;48.790;9.210;2023-02-05T03:21:08;13.27;;;7.47;;
6414;SDS011;3240;48.790;9.210;2023-02-05T03:23:36;15.10;;;7.90;;
6414;SDS011;3240;48.790;9.210;2023-02-05T03:26:04;21.50;;;8.47;;
6414;SDS011;3240;48.790;9.210;2023-02-05T03:28:33;21.97;;;8.13;;
6414;SDS011;3240;48.790;9.210;2023-02-05T03:31:05;14.77;;;8.50;;
6414;SDS011;3240;48.790;9.210;2023-02-05T03:33:37;21.43;;;9.00;;
6414;SDS011;3240;48.790;9.210;2023-02-05T03:36:08;16.90;;;8.27;;
6414;SDS011;3240;48.790;9.210;2023-02-05T03:38:41;16.83;;;8.23;;
6414;SDS011;3240;48.790;9.210;2023-02-05T03:42:15;16.73;;;9.73;;
6414;SDS011;3240;48.790;9.210;2023-02-05T03:43:59;16.80;;;8.00;;
6414;SDS011;3240;48.790;9.210;2023-02-05T03:46:27;17.93;;;8.53;;
6414;SDS011;3240;48.790;9.210;2023-02-05T03:52:14;18.20;;;8.90;;
6414;SDS011;3240;48.790;9.210;2023-02-05T03:54:27;21.87;;;8.57;;
6414;SDS011;3240;48.790;9.210;2023-02-05T03:56:56;22.00;;;8.80;;
6414;SDS011;3240;48.790;9.210;2023-02-05T03:59:22;17.53;;;8.70;;
6414;SDS011;3240;48.790;9.210;2023-02-05T04:01:50;16.07;;;8.50;;
6414;SDS011;3240;48.790;9.210;2023-02-05T04:04:19;26.47;;;11.50;;
6414;SDS011;3240;48.790;9.210;2023-02-05T04:06:47;13.87;;;8.40;;
6414;SDS011;3240;48.790;9.210;2023-02-05T04:09:15;21.90;;;8.13;;
6414;SDS011;3240;48.790;9.210;2023-02-05T04:11:44;14.17;;;7.80;;
6414;SDS011;3240;48.790;9.210;2023-02-05T04:14:12;15.10;;;8.20;;
6414;SDS011;3240;48.790;9.210;2023-02-05T04:16:40;19.00;;;9.23;;
6414;SDS011;3240;48.790;9.210;2023-02-05T04:19:08;23.20;;;10.30;;
6414;SDS011;3240;48.790;9.210;2023-02-05T04:21:37;17.83;;;9.30;;
6414;SDS011;3240;48.790;9.210;2023-02-05T04:24:05;19.40;;;8.90;;
6414;SDS011;3240;48.790;9.210;2023-02-05T04:26:34;16.70;;;8.50;;
6414;SDS011;3240;48.790;9.210;2023-02-05T04:29:02;22.37;;;9.33;;
6414;SDS011;3240;48.790;9.210;2023-02-05T04:31:30;16.10;;;8.10;;
6414;SDS011;3240;48.790;9.210;2023-02-05T04:33:59;20.03;;;8.10;;
6414;SDS011;3240;48.790;9.210;2023-02-05T04:36:27;13.93;;;8.13;;
6414;SDS011;3240;48.790;9.210;2023-02-05T04:38:55;17.87;;;10.13;;
6414;SDS011;3240;48.790;9.210;2023-02-05T04:41:24;16.90;;;8.43;;
6414;SDS011;3240;48.790;9.210;2023-02-05T04:43:52;18.67;;;9.57;;
6414;SDS011;3240;48.790;9.210;2023-02-05T04:46:20;19.90;;;9.37;;
6414;SDS011;3240;48.790;9.210;2023-02-05T04:48:49;19.37;;;9.30;;
6414;SDS011;3240;48.790;9.210;2023-02-05T04:51:17;23.57;;;9.07;;
6414;SDS011;3240;48.790;9.210;2023-02-05T04:53:45;18.90;;;9.93;;
6414;SDS011;3240;48.790;9.210;2023-02-05T04:56:14;17.80;;;8.53;;
6414;SDS011;3240;48.790;9.210;2023-02-05T04:58:42;18.60;;;9.13;;
6414;SDS011;3240;48.790;9.210;2023-02-05T05:01:12;17.62;;;9.57;;
6414;SDS011;3240;48.790;9.210;2023-02-05T05:03:39;19.23;;;9.03;;
6414;SDS011;3240;48.790;9.210;2023-02-05T05:06:08;18.90;;;8.83;;
6414;SDS011;3240;48.790;9.210;2023-02-05T05:08:36;20.53;;;9.37;;
6414;SDS011;3240;48.790;9.210;2023-02-05T05:11:06;17.90;;;9.10;;
6414;SDS011;3240;48.790;9.210;2023-02-05T05:13:34;21.90;;;9.50;;
6414;SDS011;3240;48.790;9.210;2023-02-05T05:16:02;20.50;;;9.20;;
6414;SDS011;3240;48.790;9.210;2023-02-05T05:18:30;18.97;;;8.30;;
6414;SDS011;3240;48.790;9.210;2023-02-05T05:20:59;24.53;;;10.10;;
6414;SDS011;3240;48.790;9.210;2023-02-05T05:23:27;21.40;;;10.45;;
6414;SDS011;3240;48.790;9.210;2023-02-05T05:25:55;24.17;;;8.50;;
6414;SDS011;3240;48.790;9.210;2023-02-05T05:28:23;21.27;;;9.17;;
6414;SDS011;3240;48.790;9.210;2023-02-05T05:30:52;16.30;;;8.67;;
6414;SDS011;3240;48.790;9.210;2023-02-05T05:33:20;21.13;;;9.13;;
6414;SDS011;3240;48.790;9.210;2023-02-05T05:35:48;22.27;;;9.07;;
6414;SDS011;3240;48.790;9.210;2023-02-05T05:38:17;26.10;;;8.70;;
6414;SDS011;3240;48.790;9.210;2023-02-05T05:40:45;15.53;;;7.73;;
6414;SDS011;3240;48.790;9.210;2023-02-05T05:43:19;17.80;;;8.83;;
6414;SDS011;3240;48.790;9.210;2023-02-05T05:45:53;19.50;;;8.60;;
6414;SDS011;3240;48.790;9.210;2023-02-05T05:48:22;18.70;;;8.50;;
6414;SDS011;3240;48.790;9.210;2023-02-05T05:50:50;15.07;;;8.10;;
6414;SDS011;3240;48.790;9.210;2023-02-05T05:53:18;14.83;;;8.33;;
6414;SDS011;3240;48.790;9.210;2023-02-05T05:55:47;18.23;;;8.53;;
6414;SDS011;3240;48.790;9.210;2023-02-05T05:58:15;26.60;;;8.47;;
6414;SDS011;3240;48.790;9.210;2023-02-05T06:00:43;22.67;;;7.90;;
6414;SDS011;3240;48.790;9.210;2023-02-05T06:03:12;12.40;;;8.60;;
6414;SDS011;3240;48.790;9.210;2023-02-05T06:05:40;13.73;;;8.43;;
6414;SDS011;3240;48.790;9.210;2023-02-05T06:08:08;18.37;;;8.43;;
6414;SDS011;3240;48.790;9.210;2023-02-05T06:10:37;20.10;;;9.20;;
6414;SDS011;3240;48.790;9.210;2023-02-05T06:13:05;19.67;;;8.07;;
6414;SDS011;3240;48.790;9.210;2023-02-05T06:15:33;16.17;;;8.53;;
6414;SDS011;3240;48.790;9.210;2023-02-05T06:18:02;16.47;;;7.90;;
6414;SDS011;3240;48.790;9.210;2023-02-05T06:20:30;21.67;;;8.83;;
6414;SDS011;3240;48.790;9.210;2023-02-05T06:22:58;18.97;;;7.80;;
6414;SDS011;3240;48.790;9.210;2023-02-05T06:25:27;16.57;;;8.30;;
6414;SDS011;3240;48.790;9.210;2023-02-05T06:27:55;23.23;;;8.90;;
6414;SDS011;3240;48.790;9.210;2023-02-05T06:30:23;18.60;;;7.87;;
6414;SDS011;3240;48.790;9.210;2023-02-05T06:32:52;20.37;;;9.03;;
6414;SDS011;3240;48.790;9.210;2023-02-05T06:35:20;20.33;;;9.17;;
6414;SDS011;3240;48.790;9.210;2023-02-05T06:37:48;18.23;;;9.00;;
6414;SDS011;3240;48.790;9.210;2023-02-05T06:40:17;19.57;;;8.83;;
6414;SDS011;3240;48.790;9.210;2023-02-05T06:42:45;16.00;;;7.50;;
6414;SDS011;3240;48.790;9.210;2023-02-05T06:45:13;18.63;;;8.20;;
6414;SDS011;3240;48.790;9.210;2023-02-05T06:47:42;15.10;;;8.10;;
6414;SDS011;3240;48.790;9.210;2023-02-05T06:50:10;20.05;;;10.07;;
6414;SDS011;3240;48.790;9.210;2023-02-05T06:52:38;20.20;;;9.53;;
6414;SDS011;3240;48.790;9.210;2023-02-05T06:55:07;18.50;;;8.90;;
6414;SDS011;3240;48.790;9.210;2023-02-05T06:57:35;21.40;;;8.07;;
6414;SDS011;3240;48.790;9.210;2023-02-05T07:00:04;14.37;;;7.60;;
6414;SDS011;3240;48.790;9.210;2023-02-05T07:02:33;19.67;;;8.83;;
6414;SDS011;3240;48.790;9.210;2023-02-05T07:05:01;18.00;;;8.70;;
6414;SDS011;3240;48.790;9.210;2023-02-05T07:07:30;18.53;;;7.93;;
6414;SDS011;3240;48.790;9.210;2023-02-05T07:09:58;22.83;;;7.70;;
6414;SDS011;3240;48.790;9.210;2023-02-05T07:12:26;21.70;;;8.00;;
6414;SDS011;3240;48.790;9.210;2023-02-05T07:14:55;26.20;;;8.23;;
6414;SDS011;3240;48.790;9.210;2023-02-05T07:17:23;17.97;;;8.30;;
6414;SDS011;3240;48.790;9.210;2023-02-05T07:19:51;17.70;;;7.90;;
6414;SDS011;3240;48.790;9.210;2023-02-05T07:22:20;17.60;;;8.23;;
6414;SDS011;3240;48.790;9.210;2023-02-05T07:24:48;14.07;;;7.10;;
6414;SDS011;3240;48.790;9.210;2023-02-05T07:27:16;22.10;;;8.20;;
6414;SDS011;3240;48.790;9.210;2023-02-05T07:29:45;12.80;;;8.73;;
6414;SDS011;3240;48.790;9.210;2023-02-05T07:32:13;18.37;;;8.33;;
6414;SDS011;3240;48.790;9.210;2023-02-05T07:34:41;21.80;;;7.53;;
6414;SDS011;3240;48.790;9.210;2023-02-05T07:37:10;20.17;;;8.00;;
6414;SDS011;3240;48.790;9.210;2023-02-05T07:39:38;14.57;;;7.30;;
6414;SDS011;3240;48.790;9.210;2023-02-05T07:42:06;20.20;;;8.30;;
6414;SDS011;3240;48.790;9.210;2023-02-05T07:44:35;15.13;;;7.93;;
6414;SDS011;3240;48.790;9.210;2023-02-05T07:47:03;17.87;;;8.17;;
6414;SDS011;3240;48.790;9.210;2023-02-05T07:49:31;19.50;;;9.13;;
6414;SDS011;3240;48.790;9.210;2023-02-05T07:52:00;15.13;;;8.07;;
6414;SDS011;3240;48.790;9.210;2023-02-05T07:54:28;18.80;;;8.10;;
6414;SDS011;3240;48.790;9.210;2023-02-05T07:56:56;21.00;;;8.27;;
6414;SDS011;3240;48.790;9.210;2023-02-05T07:59:25;16.63;;;8.10;;
6414;SDS011;3240;48.790;9.210;2023-02-05T08:01:53;16.10;;;8.10;;
6414;SDS011;3240;48.790;9.210;2023-02-05T08:04:21;26.03;;;8.83;;
6414;SDS011;3240;48.790;9.210;2023-02-05T08:06:50;18.30;;;7.73;;
6414;SDS011;3240;48.790;9.210;2023-02-05T08:09:18;13.20;;;8.47;;
6414;SDS011;3240;48.790;9.210;2023-02-05T08:11:46;20.02;;;8.93;;
6414;SDS011;3240;48.790;9.210;2023-02-05T08:14:15;16.30;;;9.53;;
6414;SDS011;3240;48.790;9.210;2023-02-05T08:16:43;15.23;;;7.23;;
6414;SDS011;3240;48.790;9.210;2023-02-05T08:19:14;13.03;;;7.60;;
6414;SDS011;3240;48.790;9.210;2023-02-05T08:21:42;22.40;;;8.77;;
6414;SDS011;3240;48.790;9.210;2023-02-05T08:24:10;18.23;;;8.20;;
6414;SDS011;3240;48.790;9.210;2023-02-05T08:26:38;14.83;;;7.10;;
6414;SDS011;3240;48.790;9.210;2023-02-05T08:29:07;15.57;;;8.17;;
6414;SDS011;3240;48.790;9.210;2023-02-05T08:31:35;15.77;;;8.57;;
6414;SDS011;3240;48.790;9.210;2023-02-05T08:34:03;19.00;;;8.30;;
6414;SDS011;3240;48.790;9.210;2023-02-05T08:36:31;14.40;;;8.17;;
6414;SDS011;3240;48.790;9.210;2023-02-05T08:39:00;18.03;;;8.23;;
6414;SDS011;3240;48.790;9.210;2023-02-05T08:41:28;18.03;;;8.70;;
6414;SDS011;3240;48.790;9.210;2023-02-05T08:43:56;18.70;;;8.13;;
6414;SDS011;3240;48.790;9.210;2023-02-05T08:46:25;18.00;;;8.80;;
6414;SDS011;3240;48.790;9.210;2023-02-05T08:48:53;15.97;;;7.90;;
6414;SDS011;3240;48.790;9.210;2023-02-05T08:51:21;16.43;;;7.40;;
6414;SDS011;3240;48.790;9.210;2023-02-05T08:53:50;17.83;;;8.00;;
6414;SDS011;3240;48.790;9.210;2023-02-05T08:56:18;16.43;;;9.70;;
6414;SDS011;3240;48.790;9.210;2023-02-05T08:58:46;25.83;;;8.47;;
6414;SDS011;3240;48.790;9.210;2023-02-05T09:01:15;21.60;;;8.50;;
6414;SDS011;3240;48.790;9.210;2023-02-05T09:03:44;18.43;;;7.37;;
6414;SDS011;3240;48.790;9.210;2023-02-05T09:06:12;16.73;;;7.80;;
6414;SDS011;3240;48.790;9.210;2023-02-05T09:08:40;21.30;;;8.43;;
6414;SDS011;3240;48.790;9.210;2023-02-05T09:11:08;13.27;;;7.47;;
6414;SDS011;3240;48.790;9.210;2023-02-05T09:13:36;17.50;;;8.30;;
6414;SDS011;3240;48.790;9.210;2023-02-05T09:16:05;13.50;;;7.33;;
6414;SDS011;3240;48.790;9.210;2023-02-05T09:18:33;13.97;;;6.70;;
6414;SDS011;3240;48.790;9.210;2023-02-05T09:21:04;23.00;;;7.30;;
6414;SDS011;3240;48.790;9.210;2023-02-05T09:23:30;14.93;;;7.87;;
6414;SDS011;3240;48.790;9.210;2023-02-05T09:25:58;18.60;;;8.30;;
6414;SDS011;3240;48.790;9.210;2023-02-05T09:28:27;16.53;;;8.43;;
6414;SDS011;3240;48.790;9.210;2023-02-05T09:30:55;13.53;;;8.23;;
6414;SDS011;3240;48.790;9.210;2023-02-05T09:33:23;10.23;;;7.10;;
6414;SDS011;3240;48.790;9.210;2023-02-05T09:35:52;18.93;;;7.90;;
6414;SDS011;3240;48.790;9.210;2023-02-05T09:38:20;19.80;;;8.83;;
6414;SDS011;3240;48.790;9.210;2023-02-05T09:40:58;17.03;;;8.90;;
6414;SDS011;3240;48.790;9.210;2023-02-05T09:43:34;20.40;;;8.93;;
6414;SDS011;3240;48.790;9.210;2023-02-05T09:46:00;18.27;;;9.37;;
6414;SDS011;3240;48.790;9.210;2023-02-05T09:49:02;25.43;;;10.30;;
6414;SDS011;3240;48.790;9.210;2023-02-05T09:51:12;23.10;;;9.10;;
6414;SDS011;3240;48.790;9.210;2023-02-05T09:53:41;20.30;;;9.13;;
6414;SDS011;3240;48.790;9.210;2023-02-05T09:56:09;24.13;;;10.07;;
6414;SDS011;3240;48.790;9.210;2023-02-05T09:58:39;20.73;;;8.77;;
6414;SDS011;3240;48.790;9.210;2023-02-05T10:01:11;18.70;;;9.90;;
6414;SDS011;3240;48.790;9.210;2023-02-05T10:03:43;24.10;;;9.53;;
6414;SDS011;3240;48.790;9.210;2023-02-05T10:06:32;19.57;;;9.03;;
6414;SDS011;3240;48.790;9.210;2023-02-05T10:11:26;21.70;;;9.97;;
6414;SDS011;3240;48.790;9.210;2023-02-05T10:16:32;22.87;;;9.90;;
6414;SDS011;3240;48.790;9.210;2023-02-05T10:19:03;22.57;;;10.27;;
6414;SDS011;3240;48.790;9.210;2023-02-05T10:21:34;17.73;;;10.00;;
6414;SDS011;3240;48.790;9.210;2023-02-05T10:26:49;23.03;;;10.90;;
6414;SDS011;3240;48.790;9.210;2023-02-05T10:29:54;15.93;;;10.00;;
6414;SDS011;3240;48.790;9.210;2023-02-05T10:32:07;21.67;;;9.27;;
6414;SDS011;3240;48.790;9.210;2023-02-05T10:37:16;32.97;;;11.47;;
6414;SDS011;3240;48.790;9.210;2023-02-05T10:39:45;19.20;;;10.03;;
6414;SDS011;3240;48.790;9.210;2023-02-05T10:42:22;22.13;;;10.60;;
6414;SDS011;3240;48.790;9.210;2023-02-05T10:44:48;25.43;;;11.30;;
6414;SDS011;3240;48.790;9.210;2023-02-05T10:47:17;20.83;;;10.10;;
6414;SDS011;3240;48.790;9.210;2023-02-05T10:49:47;17.80;;;11.10;;
6414;SDS011;3240;48.790;9.210;2023-02-05T10:52:14;24.30;;;11.10;;
6414;SDS011;3240;48.790;9.210;2023-02-05T10:54:43;20.93;;;10.70;;
6414;SDS011;3240;48.790;9.210;2023-02-05T10:57:12;22.43;;;11.03;;
6414;SDS011;3240;48.790;9.210;2023-02-05T10:59:46;24.50;;;10.97;;
6414;SDS011;3240;48.790;9.210;2023-02-05T11:02:09;25.83;;;11.83;;
6414;SDS011;3240;48.790;9.210;2023-02-05T11:04:44;19.23;;;10.97;;
6414;SDS011;3240;48.790;9.210;2023-02-05T11:07:12;25.70;;;11.40;;
6414;SDS011;3240;48.790;9.210;2023-02-05T11:09:40;22.90;;;11.10;;
6414;SDS011;3240;48.790;9.210;2023-02-05T11:12:15;25.93;;;11.33;;
6414;SDS011;3240;48.790;9.210;2023-02-05T11:14:43;18.27;;;10.33;;
6414;SDS011;3240;48.790;9.210;2023-02-05T11:17:20;19.13;;;11.33;;
6414;SDS011;3240;48.790;9.210;2023-02-05T11:19:51;21.80;;;11.23;;
6414;SDS011;3240;48.790;9.210;2023-02-05T11:22:24;20.87;;;10.70;;
6414;SDS011;3240;48.790;9.210;2023-02-05T11:24:50;22.80;;;9.80;;
6414;SDS011;3240;48.790;9.210;2023-02-05T11:27:24;20.47;;;11.40;;
6414;SDS011;3240;48.790;9.210;2023-02-05T11:29:51;18.87;;;11.30;;
6414;SDS011;3240;48.790;9.210;2023-02-05T11:32:20;18.87;;;11.50;;
6414;SDS011;3240;48.790;9.210;2023-02-05T11:34:47;25.60;;;11.60;;
6414;SDS011;3240;48.790;9.210;2023-02-05T11:37:16;22.03;;;11.63;;
6414;SDS011;3240;48.790;9.210;2023-02-05T11:39:44;20.30;;;11.37;;
6414;SDS011;3240;48.790;9.210;2023-02-05T11:42:18;24.43;;;11.47;;
6414;SDS011;3240;48.790;9.210;2023-02-05T11:44:47;23.65;;;12.20;;
6414;SDS011;3240;48.790;9.210;2023-02-05T11:47:18;20.67;;;11.13;;
6414;SDS011;3240;48.790;9.210;2023-02-05T11:49:42;19.20;;;11.07;;
6414;SDS011;3240;48.790;9.210;2023-02-05T11:52:11;21.53;;;10.73;;
6414;SDS011;3240;48.790;9.210;2023-02-05T11:54:42;17.13;;;9.77;;
6414;SDS011;3240;48.790;9.210;2023-02-05T11:59:57;19.77;;;9.87;;
6414;SDS011;3240;48.790;9.210;2023-02-05T12:02:26;21.93;;;11.03;;
6414;SDS011;3240;48.790;9.210;2023-02-05T12:07:28;18.47;;;10.27;;
6414;SDS011;3240;48.790;9.210;2023-02-05T12:09:55;16.97;;;11.30;;
6414;SDS011;3240;48.790;9.210;2023-02-05T12:12:29;21.17;;;10.03;;
6414;SDS011;3240;48.790;9.210;2023-02-05T12:15:02;22.90;;;11.63;;
6414;SDS011;3240;48.790;9.210;2023-02-05T12:20:10;22.10;;;10.63;;
6414;SDS011;3240;48.790;9.210;2023-02-05T12:22:40;23.67;;;10.97;;
6414;SDS011;3240;48.790;9.210;2023-02-05T12:25:13;22.23;;;11.00;;
6414;SDS011;3240;48.790;9.210;2023-02-05T12:30:29;17.77;;;10.93;;
6414;SDS011;3240;48.790;9.210;2023-02-05T12:32:59;22.00;;;10.50;;
6414;SDS011;3240;48.790;9.210;2023-02-05T12:35:28;27.33;;;11.53;;
6414;SDS011;3240;48.790;9.210;2023-02-05T12:37:57;23.23;;;12.07;;
6414;SDS011;3240;48.790;9.210;2023-02-05T12:40:28;20.80;;;10.87;;
6414;SDS011;3240;48.790;9.210;2023-02-05T12:42:53;17.83;;;10.43;;
6414;SDS011;3240;48.790;9.210;2023-02-05T12:45:25;24.57;;;11.47;;
6414;SDS011;3240;48.790;9.210;2023-02-05T12:48:00;21.13;;;11.37;;
6414;SDS011;3240;48.790;9.210;2023-02-05T12:50:33;23.93;;;11.83;;
6414;SDS011;3240;48.790;9.210;2023-02-05T12:53:12;22.00;;;11.90;;
6414;SDS011;3240;48.790;9.210;2023-02-05T12:55:47;28.40;;;11.50;;
6414;SDS011;3240;48.790;9.210;2023-02-05T12:58:13;23.23;;;12.00;;
6414;SDS011;3240;48.790;9.210;2023-02-05T13:00:49;21.80;;;11.57;;
6414;SDS011;3240;48.790;9.210;2023-02-05T13:03:26;18.57;;;12.07;;
6414;SDS011;3240;48.790;9.210;2023-02-05T13:05:53;23.83;;;10.60;;
6414;SDS011;3240;48.790;9.210;2023-02-05T13:08:25;22.00;;;10.53;;
6414;SDS011;3240;48.790;9.210;2023-02-05T13:10:52;25.83;;;9.57;;
6414;SDS011;3240;48.790;9.210;2023-02-05T13:13:21;18.40;;;10.90;;
6414;SDS011;3240;48.790;9.210;2023-02-05T13:15:50;30.10;;;10.67;;
6414;SDS011;3240;48.790;9.210;2023-02-05T13:18:19;23.93;;;12.30;;
6414;SDS011;3240;48.790;9.210;2023-02-05T13:20:48;22.47;;;11.17;;
6414;SDS011;3240;48.790;9.210;2023-02-05T13:23:19;15.50;;;10.30;;
6414;SDS011;3240;48.790;9.210;2023-02-05T13:25:53;17.53;;;10.00;;
6414;SDS011;3240;48.790;9.210;2023-02-05T13:28:32;23.30;;;12.37;;
6414;SDS011;3240;48.790;9.210;2023-02-05T13:31:02;19.13;;;9.90;;
6414;SDS011;3240;48.790;9.210;2023-02-05T13:33:31;18.07;;;10.87;;
6414;SDS011;3240;48.790;9.210;2023-02-05T13:41:16;24.60;;;10.53;;
6414;SDS011;3240;48.790;9.210;2023-02-05T13:43:46;19.73;;;9.07;;
6414;SDS011;3240;48.790;9.210;2023-02-05T13:46:30;19.13;;;9.20;;
6414;SDS011;3240;48.790;9.210;2023-02-05T13:49:16;11.83;;;6.20;;
6414;SDS011;3240;48.790;9.210;2023-02-05T13:54:22;8.03;;;4.63;;
6414;SDS011;3240;48.790;9.210;2023-02-05T13:56:47;9.63;;;5.77;;
6414;SDS011;3240;48.790;9.210;2023-02-05T13:59:17;8.80;;;3.30;;
6414;SDS011;3240;48.790;9.210;2023-02-05T14:01:53;6.53;;;3.70;;
6414;SDS011;3240;48.790;9.210;2023-02-05T14:04:21;6.43;;;3.90;;
6414;SDS011;3240;48.790;9.210;2023-02-05T14:06:54;5.13;;;3.37;;
6414;SDS011;3240;48.790;9.210;2023-02-05T14:09:22;7.93;;;3.43;;
6414;SDS011;3240;48.790;9.210;2023-02-05T14:11:52;5.63;;;3.10;;
6414;SDS011;3240;48.790;9.210;2023-02-05T14:14:22;7.43;;;2.97;;
6414;SDS011;3240;48.790;9.210;2023-02-05T14:16:49;7.90;;;2.40;;
6414;SDS011;3240;48.790;9.210;2023-02-05T14:19:20;5.90;;;3.20;;
6414;SDS011;3240;48.790;9.210;2023-02-05T14:21:47;6.00;;;3.33;;
6414;SDS011;3240;48.790;9.210;2023-02-05T14:26:51;3.40;;;2.60;;
6414;SDS011;3240;48.790;9.210;2023-02-05T14:31:53;8.73;;;2.57;;
6414;SDS011;3240;48.790;9.210;2023-02-05T14:34:43;5.63;;;2.33;;
6414;SDS011;3240;48.790;9.210;2023-02-05T14:37:44;4.62;;;2.60;;
6414;SDS011;3240;48.790;9.210;2023-02-05T14:39:54;4.03;;;2.07;;
6414;SDS011;3240;48.790;9.210;2023-02-05T14:42:22;3.73;;;2.57;;
6414;SDS011;3240;48.790;9.210;2023-02-05T14:44:52;7.00;;;3.17;;
6414;SDS011;3240;48.790;9.210;2023-02-05T14:47:21;3.27;;;2.37;;
6414;SDS011;3240;48.790;9.210;2023-02-05T14:49:48;3.00;;;2.57;;
6414;SDS011;3240;48.790;9.210;2023-02-05T14:52:22;3.90;;;3.03;;
6414;SDS011;3240;48.790;9.210;2023-02-05T14:54:48;4.73;;;2.90;;
6414;SDS011;3240;48.790;9.210;2023-02-05T14:57:17;3.70;;;2.57;;
6414;SDS011;3240;48.790;9.210;2023-02-05T14:59:49;6.17;;;2.93;;
6414;SDS011;3240;48.790;9.210;2023-02-05T15:04:49;4.70;;;3.03;;
6414;SDS011;3240;48.790;9.210;2023-02-05T15:07:20;8.00;;;3.03;;
6414;SDS011;3240;48.790;9.210;2023-02-05T15:09:50;6.13;;;3.50;;
6414;SDS011;3240;48.790;9.210;2023-02-05T15:12:26;5.00;;;2.97;;
6414;SDS011;3240;48.790;9.210;2023-02-05T15:14:50;4.10;;;2.77;;
6414;SDS011;3240;48.790;9.210;2023-02-05T15:19:53;4.70;;;2.63;;
6414;SDS011;3240;48.790;9.210;2023-02-05T15:22:24;3.10;;;2.77;;
6414;SDS011;3240;48.790;9.210;2023-02-05T15:24:51;4.07;;;2.90;;
6414;SDS011;3240;48.790;9.210;2023-02-05T15:27:21;4.17;;;2.90;;
6414;SDS011;3240;48.790;9.210;2023-02-05T15:29:50;3.47;;;2.80;;
6414;SDS011;3240;48.790;9.210;2023-02-05T15:32:18;3.87;;;2.73;;
6414;SDS011;3240;48.790;9.210;2023-02-05T15:34:50;4.13;;;2.87;;
6414;SDS011;3240;48.790;9.210;2023-02-05T15:37:21;3.43;;;2.60;;
6414;SDS011;3240;48.790;9.210;2023-02-05T15:39:50;4.40;;;3.10;;
6414;SDS011;3240;48.790;9.210;2023-02-05T15:42:18;5.20;;;3.17;;
6414;SDS011;3240;48.790;9.210;2023-02-05T15:44:45;5.40;;;3.27;;
6414;SDS011;3240;48.790;9.210;2023-02-05T15:47:24;3.90;;;2.90;;
6414;SDS011;3240;48.790;9.210;2023-02-05T15:49:54;4.87;;;3.30;;
6414;SDS011;3240;48.790;9.210;2023-02-05T15:52:22;5.17;;;3.50;;
6414;SDS011;3240;48.790;9.210;2023-02-05T15:54:50;4.13;;;2.70;;
6414;SDS011;3240;48.790;9.210;2023-02-05T15:57:19;3.83;;;2.83;;
6414;SDS011;3240;48.790;9.210;2023-02-05T15:59:46;7.00;;;3.00;;